createdAt,value
2022-10-05T00:03:39.965Z,15.98
2022-10-05T00:06:10.160Z,17.45
2022-10-05T00:08:37.579Z,18.67
2022-10-05T00:11:08.334Z,15.02
2022-10-05T00:13:35.594Z,17.95
2022-10-05T00:16:12.319Z,16.35
2022-10-05T00:18:43.864Z,18.38
2022-10-05T00:21:25.960Z,16.60
2022-10-05T00:23:58.334Z,15.32
2022-10-05T00:26:28.574Z,15.98
2022-10-05T00:28:56.160Z,23.13
2022-10-05T00:31:32.914Z,19.63
2022-10-05T00:34:00.205Z,22.08
2022-10-05T00:36:27.284Z,18.02
2022-10-05T00:38:55.531Z,20.17
2022-10-05T00:41:45.208Z,15.82
2022-10-05T00:44:32.837Z,19.08
2022-10-05T00:47:31.010Z,18.80
2022-10-05T00:50:18.242Z,16.95
2022-10-05T00:53:23.549Z,16.15
2022-10-05T00:56:11.205Z,20.40
2022-10-05T00:58:51.004Z,17.88
2022-10-05T01:01:46.265Z,14.18
2022-10-05T01:04:45.907Z,14.38
2022-10-05T01:07:30.092Z,19.02
2022-10-05T01:10:34.594Z,14.63
2022-10-05T01:13:18.909Z,17.15
2022-10-05T01:16:24.270Z,16.27
2022-10-05T01:19:07.397Z,19.58
2022-10-05T01:21:53.903Z,18.85
2022-10-05T01:24:42.751Z,16.08
2022-10-05T01:27:31.638Z,24.10
2022-10-05T01:30:13.489Z,18.00
2022-10-05T01:32:43.596Z,17.30
2022-10-05T01:35:40.570Z,18.52
2022-10-05T01:38:24.645Z,18.92
2022-10-05T01:41:01.566Z,19.98
2022-10-05T01:43:44.706Z,19.75
2022-10-05T01:46:33.940Z,18.23
2022-10-05T01:49:13.134Z,20.67
2022-10-05T01:51:58.736Z,18.40
2022-10-05T01:54:55.791Z,21.13
2022-10-05T01:57:45.762Z,17.42
2022-10-05T02:00:18.443Z,21.25
2022-10-05T02:02:57.412Z,22.80
2022-10-05T02:05:39.614Z,26.55
2022-10-05T02:08:27.590Z,18.13
2022-10-05T02:11:15.022Z,18.30
2022-10-05T02:13:47.961Z,18.08
2022-10-05T02:16:43.105Z,18.73
2022-10-05T02:19:44.677Z,17.70
2022-10-05T02:22:28.623Z,21.02
2022-10-05T02:24:59.336Z,16.13
2022-10-05T02:27:33.362Z,19.20
2022-10-05T02:30:05.837Z,20.95
2022-10-05T02:33:02.601Z,20.10
2022-10-05T02:35:30.178Z,14.68
2022-10-05T02:38:07.988Z,18.63
2022-10-05T02:40:47.095Z,21.73
2022-10-05T02:43:18.558Z,17.55
2022-10-05T02:45:58.502Z,20.75
2022-10-05T02:48:37.189Z,18.77
2022-10-05T02:51:28.333Z,18.52
2022-10-05T02:54:08.911Z,17.80
2022-10-05T02:57:08.519Z,20.70
2022-10-05T02:59:46.962Z,18.73
2022-10-05T03:02:35.605Z,17.25
2022-10-05T03:08:03.721Z,24.95
2022-10-05T03:10:43.659Z,21.77
2022-10-05T03:13:23.963Z,18.40
2022-10-05T03:16:25.570Z,25.17
2022-10-05T03:19:02.930Z,20.33
2022-10-05T03:21:54.314Z,18.50
2022-10-05T03:24:31.851Z,18.83
2022-10-05T03:27:11.058Z,24.20
2022-10-05T03:29:52.910Z,20.00
2022-10-05T03:32:45.537Z,17.73
2022-10-05T03:35:57.238Z,17.92
2022-10-05T03:38:58.664Z,21.60
2022-10-05T03:42:09.508Z,23.25
2022-10-05T03:45:03.050Z,22.55
2022-10-05T03:48:01.481Z,19.05
2022-10-05T03:50:52.329Z,22.88
2022-10-05T03:53:26.711Z,25.85
2022-10-05T03:56:33.096Z,21.85
2022-10-05T03:59:15.060Z,22.08
2022-10-05T04:01:52.553Z,19.52
2022-10-05T04:04:47.598Z,19.70
2022-10-05T04:07:47.804Z,24.85
2022-10-05T04:10:23.873Z,19.40
2022-10-05T04:13:11.420Z,23.00
2022-10-05T04:16:08.857Z,18.25
2022-10-05T04:18:47.297Z,20.13
2022-10-05T04:21:24.169Z,22.42
2022-10-05T04:24:00.197Z,19.20
2022-10-05T04:26:56.461Z,24.38
2022-10-05T04:29:44.670Z,20.33
2022-10-05T04:32:16.619Z,17.80
2022-10-05T04:34:51.033Z,18.63
2022-10-05T04:37:42.151Z,19.15
2022-10-05T04:40:48.104Z,16.48
2022-10-05T04:43:25.443Z,23.38
2022-10-05T04:46:22.650Z,15.30
2022-10-05T04:49:02.242Z,16.67
2022-10-05T04:51:52.048Z,14.90
2022-10-05T04:54:30.731Z,18.30
2022-10-05T04:57:07.548Z,16.70
2022-10-05T04:59:50.661Z,20.20
2022-10-05T05:02:25.296Z,16.33
2022-10-05T05:05:22.618Z,20.23
2022-10-05T05:08:32.510Z,19.42
2022-10-05T05:11:12.408Z,18.75
2022-10-05T05:14:01.076Z,20.70
2022-10-05T05:16:43.584Z,20.15
2022-10-05T05:19:24.452Z,20.05
2022-10-05T05:22:04.400Z,21.30
2022-10-05T05:24:41.149Z,20.15
2022-10-05T05:27:09.483Z,19.98
2022-10-05T05:29:38.083Z,23.30
2022-10-05T05:32:33.452Z,16.63
2022-10-05T05:35:32.227Z,18.17
2022-10-05T05:38:28.176Z,19.08
2022-10-05T05:41:18.966Z,18.80
2022-10-05T05:47:02.256Z,18.48
2022-10-05T05:49:36.243Z,23.75
2022-10-05T05:52:53.970Z,18.55
2022-10-05T05:55:36.467Z,16.30
2022-10-05T05:58:06.563Z,19.73
2022-10-05T06:01:04.637Z,13.40
2022-10-05T06:03:38.696Z,16.95
2022-10-05T06:06:12.599Z,18.05
2022-10-05T06:08:47.519Z,18.08
2022-10-05T06:11:46.793Z,15.55
2022-10-05T06:14:32.412Z,26.60
2022-10-05T06:17:33.038Z,16.00
2022-10-05T06:20:05.428Z,18.58
2022-10-05T06:22:43.106Z,16.27
2022-10-05T06:25:13.627Z,22.30
2022-10-05T06:28:12.093Z,16.20
2022-10-05T06:31:30.216Z,18.80
2022-10-05T06:34:29.104Z,17.48
2022-10-05T06:37:04.193Z,15.63
2022-10-05T06:40:01.074Z,18.85
2022-10-05T06:43:17.597Z,17.63
2022-10-05T06:46:15.077Z,16.15
2022-10-05T06:49:27.383Z,15.10
2022-10-05T06:52:34.481Z,18.35
2022-10-05T06:55:24.418Z,14.52
2022-10-05T06:57:55.119Z,20.30
2022-10-05T07:00:45.980Z,16.38
2022-10-05T07:03:40.313Z,19.88
2022-10-05T07:06:17.089Z,12.85
2022-10-05T07:09:17.812Z,14.40
2022-10-05T07:12:27.233Z,14.10
2022-10-05T07:15:27.700Z,14.13
2022-10-05T07:18:17.091Z,17.73
2022-10-05T07:21:23.249Z,16.27
2022-10-05T07:24:20.471Z,14.88
2022-10-05T07:27:03.642Z,12.10
2022-10-05T07:29:50.944Z,15.65
2022-10-05T07:32:34.172Z,11.73
2022-10-05T07:35:44.222Z,13.50
2022-10-05T07:38:25.372Z,14.75
2022-10-05T07:41:08.044Z,14.57
2022-10-05T07:44:02.030Z,9.38
2022-10-05T07:46:38.590Z,9.52
2022-10-05T07:49:34.139Z,9.23
2022-10-05T07:52:13.237Z,9.82
2022-10-05T07:55:04.792Z,10.75
2022-10-05T07:57:32.475Z,12.95
2022-10-05T08:00:10.880Z,9.43
2022-10-05T08:02:55.181Z,22.58
2022-10-05T08:05:30.968Z,11.30
2022-10-05T08:08:20.412Z,12.80
2022-10-05T08:10:52.540Z,7.40
2022-10-05T08:13:48.800Z,10.52
2022-10-05T08:16:16.990Z,11.25
2022-10-05T08:19:08.331Z,11.95
2022-10-05T08:22:00.812Z,10.50
2022-10-05T08:24:49.997Z,13.00
2022-10-05T08:27:32.474Z,9.18
2022-10-05T08:30:05.707Z,15.23
2022-10-05T08:32:42.292Z,7.53
2022-10-05T08:35:43.831Z,14.57
2022-10-05T08:38:24.872Z,9.85
2022-10-05T08:41:29.714Z,11.25
2022-10-05T08:44:09.367Z,10.25
2022-10-05T08:46:53.701Z,8.48
2022-10-05T08:49:23.923Z,10.98
2022-10-05T08:52:21.414Z,10.68
2022-10-05T08:55:07.523Z,14.65
2022-10-05T08:58:08.834Z,9.73
2022-10-05T09:01:02.354Z,7.40
2022-10-05T09:03:34.820Z,6.05
2022-10-05T09:06:30.305Z,9.15
2022-10-05T09:09:25.384Z,10.80
2022-10-05T09:12:23.116Z,6.65
2022-10-05T09:15:24.765Z,10.93
2022-10-05T09:18:23.845Z,7.93
2022-10-05T09:21:10.593Z,10.73
2022-10-05T09:23:45.461Z,7.53
2022-10-05T09:26:40.662Z,8.38
2022-10-05T09:29:14.168Z,8.63
2022-10-05T09:31:49.002Z,9.23
2022-10-05T09:34:31.024Z,15.45
2022-10-05T09:37:20.307Z,6.90
2022-10-05T09:40:18.252Z,13.10
2022-10-05T09:42:48.828Z,8.32
2022-10-05T09:48:18.095Z,8.65
2022-10-05T09:50:49.189Z,8.40
2022-10-05T09:53:40.505Z,7.60
2022-10-05T09:56:35.898Z,8.43
2022-10-05T09:59:38.749Z,9.63
2022-10-05T10:02:15.094Z,8.45
2022-10-05T10:05:01.818Z,10.30
2022-10-05T10:08:17.013Z,10.13
2022-10-05T10:11:04.325Z,7.35
2022-10-05T10:13:53.957Z,8.40
2022-10-05T10:16:37.869Z,12.23
2022-10-05T10:19:17.473Z,7.13
2022-10-05T10:22:06.491Z,8.93
2022-10-05T10:24:55.176Z,8.23
2022-10-05T10:27:30.342Z,5.68
2022-10-05T10:30:04.474Z,5.60
2022-10-05T10:32:43.654Z,7.43
2022-10-05T10:35:19.095Z,7.15
2022-10-05T10:38:06.251Z,7.55
2022-10-05T10:40:52.027Z,5.10
2022-10-05T10:43:34.161Z,7.53
2022-10-05T10:46:26.361Z,5.72
2022-10-05T10:49:09.489Z,9.13
2022-10-05T10:51:58.363Z,6.78
2022-10-05T10:54:45.907Z,7.25
2022-10-05T10:57:26.723Z,5.25
2022-10-05T11:00:15.616Z,6.93
2022-10-05T11:03:20.825Z,6.20
2022-10-05T11:06:07.961Z,4.18
2022-10-05T11:08:57.011Z,4.88
2022-10-05T11:11:39.109Z,16.92
2022-10-05T11:14:15.402Z,8.00
2022-10-05T11:17:05.972Z,8.48
2022-10-05T11:22:36.935Z,7.30
2022-10-05T11:25:10.579Z,6.22
2022-10-05T11:28:01.049Z,7.20
2022-10-05T11:30:31.257Z,14.40
2022-10-05T11:33:24.380Z,7.97
2022-10-05T11:36:27.479Z,9.52
2022-10-05T11:39:02.195Z,7.50
2022-10-05T11:41:42.257Z,11.13
2022-10-05T11:44:47.279Z,7.43
2022-10-05T11:47:32.173Z,12.95
2022-10-05T11:50:08.847Z,9.95
2022-10-05T11:52:45.540Z,7.68
2022-10-05T11:55:25.197Z,7.57
2022-10-05T11:58:31.039Z,9.13
2022-10-05T12:01:06.294Z,6.55
2022-10-05T12:04:06.293Z,5.82
2022-10-05T12:07:13.011Z,4.75
2022-10-05T12:10:23.141Z,4.28
2022-10-05T12:13:15.846Z,8.48
2022-10-05T12:15:55.374Z,6.50
2022-10-05T12:18:32.694Z,5.10
2022-10-05T12:21:12.067Z,6.70
2022-10-05T12:24:09.036Z,10.53
2022-10-05T12:26:53.570Z,4.30
2022-10-05T12:29:32.299Z,5.85
2022-10-05T12:32:08.252Z,3.67
2022-10-05T12:34:50.623Z,5.80
2022-10-05T12:37:26.813Z,4.68
2022-10-05T12:40:06.524Z,5.18
2022-10-05T12:42:43.926Z,7.28
2022-10-05T12:45:29.529Z,5.82
2022-10-05T12:48:15.462Z,8.05
2022-10-05T12:50:52.120Z,10.43
2022-10-05T12:53:49.222Z,4.88
2022-10-05T12:56:31.866Z,9.70
2022-10-05T12:59:14.738Z,5.97
2022-10-05T13:01:55.063Z,6.22
2022-10-05T13:04:32.697Z,4.20
2022-10-05T13:07:40.693Z,5.07
2022-10-05T13:10:35.345Z,3.50
2022-10-05T13:13:17.705Z,7.82
2022-10-05T13:16:15.905Z,6.55
2022-10-05T13:18:44.356Z,2.30
2022-10-05T13:21:17.502Z,5.30
2022-10-05T13:23:57.392Z,4.38
2022-10-05T13:26:35.094Z,4.07
2022-10-05T13:29:51.018Z,7.93
2022-10-05T13:32:26.136Z,2.88
2022-10-05T13:35:16.150Z,7.85
2022-10-05T13:38:18.476Z,7.22
2022-10-05T13:41:01.545Z,7.43
2022-10-05T13:43:49.221Z,7.55
2022-10-05T13:46:40.411Z,6.18
2022-10-05T13:49:19.901Z,3.90
2022-10-05T13:52:10.667Z,4.83
2022-10-05T13:55:15.023Z,6.47
2022-10-05T13:58:12.508Z,6.20
2022-10-05T14:01:04.668Z,7.75
2022-10-05T14:03:37.456Z,7.15
2022-10-05T14:06:30.835Z,6.78
2022-10-05T14:09:00.517Z,4.15
2022-10-05T14:11:31.948Z,6.35
2022-10-05T14:14:18.034Z,4.18
2022-10-05T14:17:06.031Z,5.43
2022-10-05T14:19:53.431Z,6.78
2022-10-05T14:22:26.696Z,3.80
2022-10-05T14:25:19.545Z,10.27
2022-10-05T14:27:57.399Z,4.68
2022-10-05T14:30:27.370Z,6.80
2022-10-05T14:33:05.689Z,6.00
2022-10-05T14:35:57.596Z,7.70
2022-10-05T14:38:37.234Z,7.82
2022-10-05T14:41:16.126Z,6.38
2022-10-05T14:43:56.553Z,7.68
2022-10-05T14:46:35.622Z,4.53
2022-10-05T14:49:29.351Z,3.08
2022-10-05T14:51:57.092Z,6.28
2022-10-05T14:54:35.992Z,5.60
2022-10-05T14:57:06.705Z,5.63
2022-10-05T15:00:04.261Z,11.40
2022-10-05T15:03:10.061Z,7.55
2022-10-05T15:06:01.837Z,6.07
2022-10-05T15:08:48.347Z,5.85
2022-10-05T15:11:49.536Z,5.10
2022-10-05T15:14:33.401Z,5.18
2022-10-05T15:17:15.033Z,8.52
2022-10-05T15:20:16.169Z,8.27
2022-10-05T15:23:17.019Z,6.28
2022-10-05T15:26:08.349Z,7.03
2022-10-05T15:28:48.636Z,9.90
2022-10-05T15:31:31.274Z,5.22
2022-10-05T15:34:13.055Z,10.85
2022-10-05T15:36:48.061Z,2.92
2022-10-05T15:39:35.323Z,8.07
2022-10-05T15:42:10.102Z,11.27
2022-10-05T15:44:56.975Z,6.03
2022-10-05T15:47:49.518Z,9.57
2022-10-05T15:50:33.072Z,8.82
2022-10-05T15:53:25.729Z,6.68
2022-10-05T15:55:59.938Z,6.90
2022-10-05T15:58:58.501Z,6.65
2022-10-05T16:01:31.764Z,4.82
2022-10-05T16:04:36.122Z,3.88
2022-10-05T16:07:29.231Z,7.78
2022-10-05T16:10:13.601Z,3.83
2022-10-05T16:12:58.895Z,11.95
2022-10-05T16:15:37.491Z,6.57
2022-10-05T16:18:24.163Z,5.45
2022-10-05T16:21:21.025Z,6.28
2022-10-05T16:24:16.013Z,6.43
2022-10-05T16:26:48.851Z,12.95
2022-10-05T16:29:34.856Z,5.55
2022-10-05T16:32:24.420Z,6.07
2022-10-05T16:35:17.003Z,8.20
2022-10-05T16:38:09.925Z,9.45
2022-10-05T16:41:01.910Z,3.30
2022-10-05T16:43:30.413Z,13.40
2022-10-05T16:46:12.540Z,9.90
2022-10-05T16:48:49.815Z,10.63
2022-10-05T16:51:28.895Z,6.43
2022-10-05T16:54:14.663Z,7.82
2022-10-05T16:56:48.329Z,4.35
2022-10-05T16:59:42.805Z,3.42
2022-10-05T17:02:16.319Z,3.97
2022-10-05T17:05:24.053Z,7.38
2022-10-05T17:08:10.664Z,6.85
2022-10-05T17:11:17.179Z,5.45
2022-10-05T17:14:07.608Z,6.07
2022-10-05T17:16:59.730Z,3.45
2022-10-05T17:20:09.619Z,4.43
2022-10-05T17:22:47.730Z,5.25
2022-10-05T17:25:34.152Z,6.57
2022-10-05T17:28:35.383Z,5.47
2022-10-05T17:31:18.817Z,4.32
2022-10-05T17:34:00.832Z,3.63
2022-10-05T17:36:58.404Z,11.27
2022-10-05T17:40:23.069Z,8.32
2022-10-05T17:43:01.579Z,7.68
2022-10-05T17:45:34.729Z,11.88
2022-10-05T17:48:06.369Z,3.45
2022-10-05T17:51:02.730Z,3.45
2022-10-05T17:54:01.686Z,5.32
2022-10-05T17:56:50.648Z,6.13
2022-10-05T17:59:36.442Z,8.95
2022-10-05T18:02:36.720Z,6.22
2022-10-05T18:05:04.697Z,6.85
2022-10-05T18:07:36.524Z,6.10
2022-10-05T18:10:10.059Z,6.65
2022-10-05T18:12:38.813Z,6.70
2022-10-05T18:15:05.851Z,6.60
2022-10-05T18:17:56.295Z,8.57
2022-10-05T18:20:27.073Z,6.93
2022-10-05T18:23:07.501Z,5.93
2022-10-05T18:25:52.217Z,5.68
2022-10-05T18:28:39.503Z,3.67
2022-10-05T18:31:26.508Z,4.38
2022-10-05T18:34:22.853Z,10.75
2022-10-05T18:37:05.496Z,2.92
2022-10-05T18:39:47.839Z,9.88
2022-10-05T18:42:35.632Z,6.53
2022-10-05T18:45:28.645Z,11.63
2022-10-05T18:48:35.586Z,5.90
2022-10-05T18:51:28.513Z,6.00
2022-10-05T18:54:17.688Z,5.07
2022-10-05T18:56:51.015Z,7.97
2022-10-05T18:59:24.163Z,9.00
2022-10-05T19:02:04.398Z,9.57
2022-10-05T19:05:23.591Z,8.80
2022-10-05T19:08:05.181Z,5.90
2022-10-05T19:10:44.674Z,7.53
2022-10-05T19:13:39.917Z,6.70
2022-10-05T19:16:46.687Z,5.20
2022-10-05T19:19:32.466Z,5.60
2022-10-05T19:22:20.094Z,5.15
2022-10-05T19:25:23.591Z,7.88
2022-10-05T19:28:09.824Z,6.88
2022-10-05T19:30:56.429Z,7.38
2022-10-05T19:33:59.534Z,7.18
2022-10-05T19:36:59.483Z,8.90
2022-10-05T19:39:36.167Z,4.22
2022-10-05T19:42:26.684Z,4.85
2022-10-05T19:45:26.900Z,6.70
2022-10-05T19:48:03.925Z,7.57
2022-10-05T19:50:33.837Z,7.50
2022-10-05T19:53:15.228Z,12.50
2022-10-05T19:55:45.769Z,5.90
2022-10-05T20:00:58.227Z,4.70
2022-10-05T20:03:31.610Z,3.90
2022-10-05T20:06:01.179Z,5.38
2022-10-05T20:08:49.966Z,6.60
2022-10-05T20:11:29.313Z,5.28
2022-10-05T20:14:01.234Z,10.27
2022-10-05T20:16:48.376Z,6.97
2022-10-05T20:19:50.923Z,9.50
2022-10-05T20:22:34.873Z,10.32
2022-10-05T20:25:06.587Z,8.93
2022-10-05T20:27:48.610Z,9.77
2022-10-05T20:30:18.584Z,8.88
2022-10-05T20:32:58.518Z,9.00
2022-10-05T20:35:30.786Z,6.30
2022-10-05T20:38:00.403Z,12.02
2022-10-05T20:40:29.581Z,7.95
2022-10-05T20:42:59.759Z,6.95
2022-10-05T20:45:27.703Z,11.95
2022-10-05T20:48:05.140Z,11.70
2022-10-05T20:50:33.183Z,7.18
2022-10-05T20:53:00.259Z,7.75
2022-10-05T20:55:31.347Z,11.55
2022-10-05T20:57:59.082Z,6.55
2022-10-05T21:00:47.114Z,8.50
2022-10-05T21:03:16.273Z,9.48
2022-10-05T21:05:46.465Z,5.13
2022-10-05T21:08:14.126Z,9.45
2022-10-05T21:10:41.175Z,6.63
2022-10-05T21:13:09.197Z,11.40
2022-10-05T21:15:36.713Z,1.75
2022-10-05T21:18:04.438Z,5.80
2022-10-05T21:20:31.591Z,6.45
2022-10-05T21:23:03.092Z,4.60
2022-10-05T21:25:30.214Z,6.38
2022-10-05T21:27:58.623Z,3.47
2022-10-05T21:30:26.011Z,1.73
2022-10-05T21:35:26.967Z,3.67
2022-10-05T21:37:54.861Z,9.45
2022-10-05T21:40:24.606Z,4.22
2022-10-05T21:42:52.243Z,4.68
2022-10-05T21:45:19.285Z,6.47
2022-10-05T21:47:46.683Z,3.72
2022-10-05T21:50:14.398Z,6.82
2022-10-05T21:52:42.063Z,9.98
2022-10-05T21:55:10.659Z,5.05
2022-10-05T21:57:38.886Z,4.53
2022-10-05T22:00:08.463Z,5.70
2022-10-05T22:02:35.656Z,6.40
2022-10-05T22:05:03.057Z,7.72
2022-10-05T22:07:30.326Z,6.35
2022-10-05T22:09:59.626Z,4.72
2022-10-05T22:12:27.113Z,5.57
2022-10-05T22:14:54.573Z,5.25
2022-10-05T22:17:31.754Z,5.70
2022-10-05T22:20:00.406Z,10.05
2022-10-05T22:22:29.788Z,8.00
2022-10-05T22:24:57.825Z,9.65
2022-10-05T22:27:28.002Z,8.50
2022-10-05T22:32:24.968Z,13.63
2022-10-05T22:34:53.416Z,9.13
2022-10-05T22:37:20.830Z,8.10
2022-10-05T22:39:50.999Z,9.55
2022-10-05T22:42:24.219Z,7.03
2022-10-05T22:44:52.288Z,8.15
2022-10-05T22:47:19.301Z,19.83
2022-10-05T22:49:46.356Z,6.13
2022-10-05T22:52:13.954Z,6.85
2022-10-05T22:54:44.670Z,18.50
2022-10-05T22:57:12.749Z,14.77
2022-10-05T22:59:40.160Z,9.80
2022-10-05T23:02:07.479Z,10.13
2022-10-05T23:04:37.371Z,8.80
2022-10-05T23:07:06.710Z,10.55
2022-10-05T23:09:33.875Z,19.20
2022-10-05T23:12:01.676Z,8.70
2022-10-05T23:14:31.355Z,10.85
2022-10-05T23:16:58.398Z,14.67
2022-10-05T23:19:25.826Z,12.13
2022-10-05T23:21:54.695Z,14.75
2022-10-05T23:24:22.888Z,10.65
2022-10-05T23:26:50.953Z,9.95
2022-10-05T23:29:19.339Z,12.57
2022-10-05T23:31:46.540Z,13.02
2022-10-05T23:34:13.698Z,10.00
2022-10-05T23:36:40.781Z,13.15
2022-10-05T23:39:07.880Z,11.05
2022-10-05T23:41:34.950Z,12.23
2022-10-05T23:44:02.440Z,9.88
2022-10-05T23:46:32.086Z,13.90
2022-10-05T23:48:59.150Z,10.10
2022-10-05T23:51:26.558Z,15.57
2022-10-05T23:53:54.869Z,7.93
2022-10-05T23:56:22.322Z,11.55
2022-10-05T23:58:49.342Z,12.23
